Time;durP1;ratioP1;P1;durP2;ratioP2;P2;SDS_P1;SDS_P2;PMS_P1;PMS_P2;Temp;Humidity;BMP_temperature;BMP_pressure;BME280_temperature;BME280_humidity;BME280_pressure;Samples;Min_cycle;Max_cycle;Signal;HPM_P1;HPM_P2
2022/08/05 00:01:22;;;;;;;2.50;1.40;;;15.50;99.90;;;;;;5015224;28;20026;-75
2022/08/05 00:03:50;;;;;;;1.85;0.70;;;15.40;99.90;;;;;;5011844;28;20042;-75
2022/08/05 00:06:19;;;;;;;5.82;1.23;;;15.50;99.90;;;;;;5015390;28;20022;-75
2022/08/05 00:08:46;;;;;;;1.80;0.93;;;15.50;99.90;;;;;;5012789;28;20042;-76
2022/08/05 00:11:15;;;;;;;1.50;0.73;;;15.50;99.90;;;;;;5014825;28;20038;-75
2022/08/05 00:13:44;;;;;;;5.85;1.25;;;15.60;99.90;;;;;;5014928;28;20101;-75
2022/08/05 00:16:14;;;;;;;2.28;0.95;;;15.60;99.90;;;;;;5014934;28;20073;-76
2022/08/05 00:18:45;;;;;;;1.45;0.60;;;15.60;99.90;;;;;;5014273;28;20076;-75
2022/08/05 00:21:14;;;;;;;1.08;0.68;;;15.60;99.90;;;;;;5012921;28;20028;-76
2022/08/05 00:23:45;;;;;;;1.15;0.70;;;15.60;99.90;;;;;;5012746;28;20046;-76
2022/08/05 00:26:13;;;;;;;0.98;0.65;;;15.60;99.90;;;;;;5012955;28;20659;-76
2022/08/05 00:28:41;;;;;;;1.30;0.80;;;15.70;99.90;;;;;;5012759;28;20107;-76
2022/08/05 00:31:09;;;;;;;0.80;0.57;;;15.70;99.90;;;;;;5012804;28;20168;-75
2022/08/05 00:33:37;;;;;;;2.08;0.73;;;15.70;99.90;;;;;;5013262;28;20413;-76
2022/08/05 00:36:05;;;;;;;2.38;0.77;;;15.70;99.90;;;;;;5013981;28;20028;-77
2022/08/05 00:38:33;;;;;;;3.60;1.20;;;15.70;99.90;;;;;;5014944;28;20017;-76
2022/08/05 00:41:00;;;;;;;1.08;0.57;;;15.70;99.90;;;;;;4997308;28;20026;-76
2022/08/05 00:43:29;;;;;;;1.27;0.73;;;15.70;99.90;;;;;;5011838;28;20614;-76
2022/08/05 00:45:56;;;;;;;0.80;0.60;;;15.70;99.90;;;;;;5014936;28;20022;-76
2022/08/05 00:48:24;;;;;;;1.42;0.63;;;15.70;99.90;;;;;;5014855;28;20022;-76
2022/08/05 00:50:53;;;;;;;1.63;0.65;;;15.70;99.90;;;;;;5014580;28;20450;-76
2022/08/05 00:53:22;;;;;;;3.08;0.65;;;15.70;99.90;;;;;;5016123;28;20021;-76
2022/08/05 00:55:50;;;;;;;1.75;0.55;;;15.70;99.90;;;;;;5011683;28;20390;-76
2022/08/05 00:58:19;;;;;;;2.75;0.77;;;15.70;99.90;;;;;;5014861;28;20109;-75
2022/08/05 01:00:47;;;;;;;4.50;1.08;;;15.70;99.90;;;;;;5012111;28;20038;-75
2022/08/05 01:03:14;;;;;;;2.05;0.73;;;15.70;99.90;;;;;;5015047;28;20112;-75
2022/08/05 01:05:42;;;;;;;2.92;0.55;;;15.70;99.90;;;;;;5015151;28;20018;-77
2022/08/05 01:08:10;;;;;;;1.27;0.82;;;15.70;99.90;;;;;;5014528;28;20343;-77
2022/08/05 01:11:00;;;;;;;0.52;0.50;;;15.80;99.90;;;;;;5014106;28;20073;-77
2022/08/05 01:14:00;;;;;;;2.40;0.75;;;15.80;99.90;;;;;;5014638;28;20018;-76
2022/08/05 01:16:36;;;;;;;2.63;0.60;;;15.80;99.90;;;;;;5011881;28;20348;-76
2022/08/05 01:20:01;;;;;;;1.38;0.50;;;15.80;99.90;;;;;;5014241;28;20038;-77
2022/08/05 01:22:42;;;;;;;4.55;0.85;;;15.80;99.90;;;;;;4912009;29;20028;-77
2022/08/05 01:25:44;;;;;;;1.05;0.52;;;15.80;99.90;;;;;;5004083;28;20038;-78
2022/08/05 01:28:53;;;;;;;5.82;0.55;;;15.80;99.90;;;;;;5012207;28;20017;-78
2022/08/05 01:31:23;;;;;;;1.95;0.50;;;15.80;99.90;;;;;;5014176;28;20034;-77
2022/08/05 01:34:19;;;;;;;3.38;1.15;;;15.80;99.90;;;;;;5011981;28;20024;-77
2022/08/05 01:36:51;;;;;;;3.05;1.13;;;15.80;99.90;;;;;;5011475;28;20018;-76
2022/08/05 01:39:20;;;;;;;1.73;0.88;;;15.80;99.90;;;;;;5015023;28;20025;-78
2022/08/05 01:41:50;;;;;;;0.95;0.47;;;15.80;99.90;;;;;;5010185;28;20042;-78
2022/08/05 01:44:19;;;;;;;1.38;0.50;;;15.80;99.90;;;;;;5014041;28;20022;-78
2022/08/05 01:46:47;;;;;;;1.88;0.60;;;15.90;99.90;;;;;;4993888;28;20026;-77
2022/08/05 01:49:21;;;;;;;1.15;0.35;;;15.90;99.90;;;;;;5012331;28;20088;-77
2022/08/05 01:51:53;;;;;;;4.25;0.70;;;16.00;99.90;;;;;;5011495;28;20033;-77
2022/08/05 01:54:21;;;;;;;0.93;0.60;;;16.00;99.90;;;;;;5012499;28;20796;-77
2022/08/05 01:56:50;;;;;;;0.63;0.40;;;16.00;99.90;;;;;;5010259;28;20029;-77
2022/08/05 01:59:21;;;;;;;0.85;0.50;;;16.00;99.90;;;;;;5014626;28;20056;-78
2022/08/05 02:01:52;;;;;;;4.25;0.60;;;16.00;99.90;;;;;;5011076;28;20041;-77
2022/08/05 02:04:21;;;;;;;0.52;0.40;;;16.10;99.90;;;;;;5013673;28;20109;-78
2022/08/05 02:06:50;;;;;;;1.50;0.52;;;16.20;99.90;;;;;;5011121;28;20029;-78
2022/08/05 02:09:17;;;;;;;1.00;0.40;;;16.30;99.90;;;;;;5014420;28;20022;-78
2022/08/05 02:11:50;;;;;;;4.25;0.50;;;16.40;99.90;;;;;;4999840;28;20129;-78
2022/08/05 02:14:27;;;;;;;0.70;0.43;;;16.50;99.90;;;;;;4992528;28;20061;-78
2022/08/05 02:16:57;;;;;;;1.13;0.50;;;16.60;99.90;;;;;;4990752;28;20097;-78
2022/08/05 02:19:42;;;;;;;2.17;0.60;;;16.60;99.90;;;;;;4992273;28;20018;-77
2022/08/05 02:22:27;;;;;;;1.60;0.50;;;16.70;99.90;;;;;;4972691;28;20581;-77
2022/08/05 02:25:26;;;;;;;1.30;0.60;;;16.80;99.90;;;;;;4991356;28;20458;-78
2022/08/05 02:27:56;;;;;;;0.93;0.50;;;16.90;99.90;;;;;;4990072;28;20368;-77
2022/08/05 02:30:27;;;;;;;0.98;0.50;;;16.90;99.90;;;;;;4991936;28;20026;-77
2022/08/05 02:32:58;;;;;;;2.88;0.82;;;17.00;99.90;;;;;;4992400;28;20018;-77
2022/08/05 02:35:27;;;;;;;1.08;0.40;;;17.10;99.90;;;;;;4992010;28;20113;-77
2022/08/05 02:37:57;;;;;;;1.38;0.70;;;17.20;99.90;;;;;;4991889;28;20371;-77
2022/08/05 02:40:26;;;;;;;1.13;0.40;;;17.20;99.90;;;;;;4992166;28;20038;-77
2022/08/05 02:42:55;;;;;;;2.90;0.57;;;17.30;99.90;;;;;;4992222;28;20036;-76
2022/08/05 02:45:25;;;;;;;3.88;0.57;;;17.30;99.90;;;;;;4992113;28;20018;-76
2022/08/05 02:47:55;;;;;;;1.35;0.80;;;17.40;99.90;;;;;;4991944;28;20074;-78
2022/08/05 02:50:24;;;;;;;2.17;0.43;;;17.40;99.90;;;;;;4991877;28;20401;-76
2022/08/05 02:52:52;;;;;;;2.28;0.30;;;17.50;99.90;;;;;;4992182;28;20531;-77
2022/08/05 02:55:21;;;;;;;1.50;0.30;;;17.50;99.90;;;;;;4991698;28;20391;-77
2022/08/05 02:57:51;;;;;;;0.63;0.50;;;17.50;99.90;;;;;;4989473;28;20129;-77
2022/08/05 03:00:19;;;;;;;1.55;0.50;;;17.60;99.90;;;;;;4991885;28;20033;-77
2022/08/05 03:02:48;;;;;;;1.83;0.68;;;17.60;99.90;;;;;;4989314;28;20081;-76
2022/08/05 03:05:16;;;;;;;0.70;0.50;;;17.70;99.90;;;;;;4992108;28;20111;-77
2022/08/05 03:07:45;;;;;;;1.00;0.55;;;17.80;99.90;;;;;;4975956;28;20034;-76
2022/08/05 03:10:15;;;;;;;1.15;0.40;;;17.90;99.90;;;;;;4974061;28;20046;-76
2022/08/05 03:12:43;;;;;;;1.88;0.52;;;17.90;99.90;;;;;;4973077;28;20034;-77
2022/08/05 03:15:11;;;;;;;1.23;0.30;;;17.90;99.90;;;;;;4993220;28;20387;-76
2022/08/05 03:17:42;;;;;;;2.95;0.60;;;17.80;99.90;;;;;;4992291;28;20094;-78
2022/08/05 03:20:10;;;;;;;0.73;0.50;;;17.90;99.90;;;;;;4994565;28;20049;-76
2022/08/05 03:22:38;;;;;;;0.77;0.40;;;17.90;99.90;;;;;;4998384;28;20057;-77
2022/08/05 03:25:08;;;;;;;3.20;0.63;;;17.90;99.90;;;;;;4979811;28;20033;-77
2022/08/05 03:27:36;;;;;;;0.85;0.32;;;17.90;99.90;;;;;;4997089;28;20018;-76
2022/08/05 03:30:04;;;;;;;1.02;0.60;;;17.90;99.90;;;;;;4996927;28;20033;-76
2022/08/05 03:32:32;;;;;;;0.60;0.50;;;17.90;99.90;;;;;;4996894;28;20022;-77
2022/08/05 03:35:00;;;;;;;0.82;0.30;;;17.90;99.90;;;;;;4997005;28;20050;-77
2022/08/05 03:37:30;;;;;;;0.70;0.40;;;17.90;99.90;;;;;;4997014;28;20022;-77
2022/08/05 03:39:59;;;;;;;1.77;0.50;;;18.00;99.90;;;;;;4996630;28;20557;-77
2022/08/05 03:42:26;;;;;;;1.92;0.50;;;18.00;99.90;;;;;;4996115;28;20522;-77
2022/08/05 03:44:54;;;;;;;1.27;0.50;;;17.90;99.90;;;;;;4997099;28;20436;-75
2022/08/05 03:47:22;;;;;;;5.05;0.40;;;18.10;99.90;;;;;;4997959;28;20030;-75
2022/08/05 03:49:50;;;;;;;1.05;0.40;;;18.10;99.90;;;;;;4978963;28;20037;-75
2022/08/05 03:52:27;;;;;;;1.60;0.60;;;18.20;99.90;;;;;;4996204;28;20014;-75
2022/08/05 03:55:03;;;;;;;1.75;0.65;;;18.20;99.90;;;;;;4994840;28;20022;-75
2022/08/05 03:57:32;;;;;;;;;;;18.30;99.90;;;;;;4997566;28;20403;-75
2022/08/05 04:00:09;;;;;;;0.28;0.25;;;18.30;99.90;;;;;;4996330;28;20267;-75
2022/08/05 04:02:39;;;;;;;1.27;0.38;;;18.30;99.90;;;;;;4994930;28;20383;-75
2022/08/05 04:05:09;;;;;;;3.10;0.50;;;18.30;99.90;;;;;;4993817;28;20046;-76
2022/08/05 04:07:39;;;;;;;0.47;0.30;;;18.30;99.90;;;;;;4994655;28;20026;-75
2022/08/05 04:10:08;;;;;;;1.55;0.85;;;18.30;99.90;;;;;;4992467;28;20539;-78
2022/08/05 04:12:36;;;;;;;1.58;0.57;;;18.40;99.90;;;;;;4993256;28;20101;-75
2022/08/05 04:15:05;;;;;;;0.60;0.47;;;18.20;99.90;;;;;;4994628;28;20126;-75
2022/08/05 04:17:34;;;;;;;1.55;0.60;;;18.20;99.90;;;;;;4993627;28;20026;-75
2022/08/05 04:20:03;;;;;;;0.85;0.30;;;18.20;99.90;;;;;;4993449;28;20101;-75
2022/08/05 04:22:30;;;;;;;1.05;0.55;;;18.20;99.90;;;;;;4994482;28;20018;-75
2022/08/05 04:24:58;;;;;;;3.15;0.77;;;18.20;99.90;;;;;;4993632;28;20018;-75
2022/08/05 04:27:26;;;;;;;0.60;0.50;;;18.10;99.90;;;;;;4994123;28;20032;-75
2022/08/05 04:29:54;;;;;;;0.50;0.40;;;18.10;99.90;;;;;;4994192;28;20030;-75
2022/08/05 04:32:21;;;;;;;2.72;0.50;;;18.10;99.90;;;;;;4992601;28;20069;-75
2022/08/05 04:34:49;;;;;;;2.13;0.60;;;18.10;99.90;;;;;;4991593;28;20026;-76
2022/08/05 04:37:17;;;;;;;1.63;0.57;;;18.10;99.90;;;;;;4994011;28;20439;-75
2022/08/05 04:39:44;;;;;;;0.60;0.47;;;18.10;99.90;;;;;;4994096;28;20028;-76
2022/08/05 04:42:12;;;;;;;1.08;0.43;;;18.10;99.90;;;;;;4994501;28;20065;-75
2022/08/05 04:44:40;;;;;;;2.08;0.88;;;18.10;99.90;;;;;;4994503;28;20026;-76
2022/08/05 04:47:08;;;;;;;0.47;0.47;;;18.10;99.90;;;;;;4994415;28;20026;-75
2022/08/05 04:49:35;;;;;;;0.60;0.30;;;18.10;99.90;;;;;;4994456;28;20022;-75
2022/08/05 04:52:03;;;;;;;0.30;0.30;;;18.10;99.90;;;;;;4994323;28;20052;-75
2022/08/05 04:54:31;;;;;;;1.85;0.40;;;18.10;99.90;;;;;;4994122;28;20041;-75
2022/08/05 04:56:58;;;;;;;1.48;0.57;;;18.10;99.90;;;;;;4994112;28;20061;-75
2022/08/05 04:59:26;;;;;;;1.38;0.63;;;18.10;99.90;;;;;;4993844;28;20066;-76
2022/08/05 05:01:54;;;;;;;0.45;0.40;;;18.10;99.90;;;;;;4993594;28;20113;-75
2022/08/05 05:04:25;;;;;;;0.77;0.43;;;18.10;99.90;;;;;;4993652;28;20539;-75
2022/08/05 05:06:53;;;;;;;1.50;0.43;;;18.10;99.90;;;;;;4990605;28;20061;-75
2022/08/05 05:09:20;;;;;;;2.13;0.40;;;18.00;99.90;;;;;;4993610;28;20038;-75
2022/08/05 05:11:49;;;;;;;1.58;0.50;;;18.00;99.90;;;;;;5005647;28;20086;-75
2022/08/05 05:14:16;;;;;;;1.77;0.63;;;18.00;99.90;;;;;;5013118;28;20057;-76
2022/08/05 05:16:44;;;;;;;1.17;0.60;;;18.10;99.90;;;;;;5012834;28;20022;-76
2022/08/05 05:19:12;;;;;;;4.68;0.57;;;18.10;99.90;;;;;;5010311;28;20022;-76
2022/08/05 05:21:39;;;;;;;2.72;0.38;;;18.10;99.90;;;;;;5008813;28;20125;-77
2022/08/05 05:24:07;;;;;;;2.03;0.50;;;18.10;99.90;;;;;;5012657;28;20398;-76
2022/08/05 05:26:35;;;;;;;1.33;0.40;;;18.00;99.90;;;;;;5012512;28;20026;-75
2022/08/05 05:29:03;;;;;;;0.55;0.30;;;18.00;99.90;;;;;;5012080;28;20022;-76
2022/08/05 05:31:31;;;;;;;0.25;0.25;;;18.00;99.90;;;;;;5012400;28;20022;-76
2022/08/05 05:33:59;;;;;;;1.05;0.40;;;18.10;99.90;;;;;;5012755;28;20050;-76
2022/08/05 05:36:26;;;;;;;0.70;0.30;;;18.00;99.90;;;;;;5012206;28;20387;-74
2022/08/05 05:38:55;;;;;;;1.20;0.35;;;18.00;99.90;;;;;;5012392;28;20053;-76
2022/08/05 05:41:26;;;;;;;1.27;0.50;;;18.00;99.90;;;;;;5011394;28;20042;-77
2022/08/05 05:43:53;;;;;;;1.42;0.60;;;18.00;99.90;;;;;;5011539;28;20069;-78
2022/08/05 05:46:21;;;;;;;0.55;0.35;;;18.00;99.90;;;;;;5012996;28;20026;-76
2022/08/05 05:48:49;;;;;;;2.10;0.60;;;18.00;99.90;;;;;;5011981;28;20017;-76
2022/08/05 05:51:24;;;;;;;2.38;0.50;;;17.90;99.90;;;;;;5013157;28;20088;-77
2022/08/05 05:53:53;;;;;;;2.20;0.80;;;17.90;99.90;;;;;;5010195;28;20682;-78
2022/08/05 05:56:21;;;;;;;3.85;0.73;;;17.90;99.90;;;;;;5012669;28;20109;-77
2022/08/05 05:58:49;;;;;;;1.00;0.65;;;17.80;99.90;;;;;;5011371;28;20470;-77
2022/08/05 06:01:16;;;;;;;1.73;0.65;;;17.80;99.90;;;;;;5010923;28;20042;-77
2022/08/05 06:03:44;;;;;;;1.75;0.52;;;17.70;99.90;;;;;;5011955;28;20053;-77
2022/08/05 06:06:12;;;;;;;1.90;0.80;;;17.70;99.90;;;;;;5011258;28;20116;-77
2022/08/05 06:08:40;;;;;;;1.65;0.70;;;17.60;99.90;;;;;;5011583;28;20022;-77
2022/08/05 06:11:07;;;;;;;1.48;0.52;;;17.60;99.90;;;;;;5011578;28;20049;-78
2022/08/05 06:13:36;;;;;;;1.52;0.60;;;17.60;99.90;;;;;;5012233;28;20084;-78
2022/08/05 06:16:04;;;;;;;1.42;0.45;;;17.50;99.90;;;;;;5013035;28;20360;-76
2022/08/05 06:18:32;;;;;;;1.00;0.47;;;17.40;99.90;;;;;;5012955;28;20048;-76
2022/08/05 06:21:00;;;;;;;1.45;0.50;;;17.40;99.90;;;;;;5012946;28;20034;-76
2022/08/05 06:23:27;;;;;;;2.30;0.95;;;17.40;99.90;;;;;;5013220;28;20483;-76
2022/08/05 06:25:55;;;;;;;1.48;0.50;;;17.40;99.90;;;;;;5013216;28;20113;-76
2022/08/05 06:28:23;;;;;;;1.90;0.50;;;17.30;99.90;;;;;;5012935;28;20022;-76
2022/08/05 06:30:51;;;;;;;0.82;0.40;;;17.20;99.90;;;;;;5012787;28;20029;-76
2022/08/05 06:33:18;;;;;;;0.75;0.45;;;17.20;99.90;;;;;;5013680;28;20049;-76
2022/08/05 06:35:46;;;;;;;0.65;0.40;;;17.20;99.90;;;;;;5013427;28;20026;-76
2022/08/05 06:38:14;;;;;;;1.27;0.45;;;17.10;99.90;;;;;;4995784;28;20029;-76
2022/08/05 06:40:45;;;;;;;1.75;0.40;;;17.10;99.90;;;;;;5013235;28;20037;-76
2022/08/05 06:43:13;;;;;;;3.75;0.40;;;17.00;99.90;;;;;;5013612;28;20018;-76
2022/08/05 06:45:41;;;;;;;1.00;0.77;;;17.00;99.90;;;;;;5013301;28;20386;-76
2022/08/05 06:48:09;;;;;;;1.55;0.52;;;16.90;99.90;;;;;;5013352;28;20057;-76
2022/08/05 06:50:36;;;;;;;1.60;0.43;;;16.80;99.90;;;;;;5012634;28;20033;-76
2022/08/05 06:53:04;;;;;;;0.73;0.38;;;16.80;99.90;;;;;;5013390;28;20097;-76
2022/08/05 06:55:32;;;;;;;2.90;0.60;;;16.80;99.90;;;;;;5016106;28;20032;-76
2022/08/05 06:57:59;;;;;;;1.13;0.40;;;16.70;99.90;;;;;;5017225;28;20418;-76
2022/08/05 07:00:27;;;;;;;4.40;0.50;;;16.60;99.90;;;;;;5016820;28;20117;-76
2022/08/05 07:02:55;;;;;;;0.90;0.30;;;16.60;99.90;;;;;;5017271;28;20060;-76
2022/08/05 07:05:27;;;;;;;0.77;0.30;;;16.50;99.90;;;;;;5017273;28;20028;-76
2022/08/05 07:07:54;;;;;;;3.13;0.70;;;16.50;99.90;;;;;;5015884;28;20390;-76
2022/08/05 07:10:24;;;;;;;2.35;0.73;;;16.40;99.90;;;;;;5016310;28;20088;-76
2022/08/05 07:18:23;;;;;;;2.00;0.70;;;16.30;99.90;;;;;;5017307;28;20087;-76
2022/08/05 07:20:51;;;;;;;1.52;0.50;;;16.20;99.90;;;;;;4998776;28;20030;-76
2022/08/05 07:23:19;;;;;;;1.25;0.70;;;16.20;99.90;;;;;;5016993;28;20026;-76
2022/08/05 07:25:46;;;;;;;7.10;0.85;;;16.20;99.90;;;;;;5016562;28;20048;-77
2022/08/05 07:28:14;;;;;;;2.05;0.75;;;16.10;99.90;;;;;;5015623;28;20022;-76
2022/08/05 07:30:42;;;;;;;0.68;0.40;;;16.10;99.90;;;;;;5015796;28;20028;-75
2022/08/05 07:33:11;;;;;;;2.78;0.57;;;16.00;99.90;;;;;;5016101;28;20017;-76
2022/08/05 07:35:40;;;;;;;1.30;0.60;;;15.90;99.90;;;;;;5015809;28;20475;-76
2022/08/05 07:38:07;;;;;;;0.63;0.43;;;15.90;99.90;;;;;;5013607;28;20506;-76
2022/08/05 07:40:35;;;;;;;2.03;0.75;;;15.90;99.90;;;;;;4997885;28;20037;-76
2022/08/05 07:43:03;;;;;;;2.85;0.77;;;15.90;99.90;;;;;;5015956;28;20505;-76
2022/08/05 07:45:32;;;;;;;2.67;0.60;;;15.90;99.90;;;;;;5016056;28;20675;-76
2022/08/05 07:47:59;;;;;;;4.95;0.70;;;15.90;99.90;;;;;;5016043;28;20014;-76
2022/08/05 07:50:27;;;;;;;2.78;0.68;;;15.80;99.90;;;;;;5011585;28;20022;-76
2022/08/05 07:52:55;;;;;;;3.03;0.77;;;15.80;99.90;;;;;;5016053;28;20382;-76
2022/08/05 07:55:23;;;;;;;0.98;0.70;;;15.80;99.90;;;;;;5015460;28;20052;-76
2022/08/05 07:57:50;;;;;;;0.73;0.43;;;15.80;99.90;;;;;;5013263;28;20021;-76
2022/08/05 08:00:18;;;;;;;4.97;0.55;;;15.80;99.90;;;;;;5013683;28;20045;-77
2022/08/05 08:02:46;;;;;;;1.80;0.90;;;15.70;99.90;;;;;;5013475;28;20072;-76
2022/08/05 08:05:14;;;;;;;0.47;0.35;;;15.70;99.90;;;;;;5014885;28;20033;-77
2022/08/05 08:07:42;;;;;;;1.20;0.50;;;15.60;99.90;;;;;;5014797;28;20056;-77
2022/08/05 08:10:10;;;;;;;1.75;0.57;;;15.60;99.90;;;;;;5013373;28;20022;-77
2022/08/05 08:12:38;;;;;;;1.40;0.80;;;15.50;99.90;;;;;;5012759;28;20042;-77
2022/08/05 08:15:07;;;;;;;1.40;0.50;;;15.50;99.90;;;;;;5015582;28;20018;-77
2022/08/05 08:17:34;;;;;;;1.38;0.60;;;15.40;99.90;;;;;;5014258;28;20030;-77
2022/08/05 08:20:05;;;;;;;0.68;0.50;;;15.30;99.90;;;;;;5004415;28;20125;-77
2022/08/05 08:22:33;;;;;;;2.03;0.60;;;15.30;99.90;;;;;;5002147;28;20046;-77
2022/08/05 08:25:03;;;;;;;1.38;0.77;;;15.30;99.90;;;;;;4987164;28;20018;-77
2022/08/05 08:27:32;;;;;;;2.08;0.70;;;15.20;99.90;;;;;;5002338;28;20390;-77
2022/08/05 08:29:59;;;;;;;0.65;0.60;;;15.20;99.90;;;;;;5005277;28;20024;-77
2022/08/05 08:32:27;;;;;;;1.65;0.90;;;15.20;99.90;;;;;;5005292;28;20029;-77
2022/08/05 08:34:55;;;;;;;3.22;0.80;;;15.10;99.90;;;;;;4992817;28;20463;-77
2022/08/05 08:37:22;;;;;;;1.70;0.77;;;15.10;99.90;;;;;;5010730;28;20112;-77
2022/08/05 08:39:50;;;;;;;1.75;0.70;;;15.10;99.90;;;;;;5013745;28;20084;-77
2022/08/05 08:42:18;;;;;;;2.08;0.60;;;15.10;99.90;;;;;;5013659;28;20041;-77
2022/08/05 08:44:46;;;;;;;3.53;0.70;;;15.10;99.90;;;;;;5013457;28;20083;-77
2022/08/05 08:47:15;;;;;;;1.80;0.70;;;15.10;99.90;;;;;;5013458;28;20426;-76
2022/08/05 08:49:47;;;;;;;1.20;0.57;;;15.10;99.90;;;;;;5011844;28;20116;-76
2022/08/05 08:52:24;;;;;;;2.28;0.93;;;15.10;99.90;;;;;;5009687;28;20026;-77
2022/08/05 08:54:55;;;;;;;2.28;0.80;;;15.00;99.90;;;;;;5003493;28;20026;-76
2022/08/05 08:57:23;;;;;;;1.50;1.00;;;15.00;99.90;;;;;;4988035;28;20026;-76
2022/08/05 08:59:51;;;;;;;2.42;1.30;;;15.00;99.90;;;;;;5009561;28;20022;-77
2022/08/05 09:02:20;;;;;;;2.72;1.25;;;15.00;99.90;;;;;;5012235;28;20034;-77
2022/08/05 09:04:48;;;;;;;1.83;1.05;;;14.90;99.90;;;;;;5011944;28;20395;-76
2022/08/05 09:07:16;;;;;;;3.83;1.10;;;14.90;99.90;;;;;;5008856;28;20489;-77
2022/08/05 09:09:44;;;;;;;3.45;1.67;;;14.90;99.90;;;;;;4993180;28;20025;-77
2022/08/05 09:12:12;;;;;;;2.92;1.30;;;14.90;99.90;;;;;;5011509;28;20045;-77
2022/08/05 09:14:40;;;;;;;4.60;1.63;;;14.80;99.90;;;;;;5014684;28;20067;-77
2022/08/05 09:17:11;;;;;;;1.85;0.95;;;14.80;99.90;;;;;;5010979;28;20026;-76
2022/08/05 09:19:39;;;;;;;1.52;0.77;;;14.80;99.90;;;;;;5012901;28;20021;-77
2022/08/05 09:22:07;;;;;;;2.28;1.05;;;14.80;99.90;;;;;;5012542;28;20037;-76
2022/08/05 09:24:38;;;;;;;1.70;1.48;;;14.70;99.90;;;;;;5014701;28;20920;-76
2022/08/05 09:27:09;;;;;;;2.25;0.90;;;14.70;99.90;;;;;;5011768;28;20026;-76
2022/08/05 09:29:44;;;;;;;1.40;0.93;;;14.70;99.90;;;;;;5013488;28;20105;-76
2022/08/05 09:32:13;;;;;;;1.38;0.80;;;14.70;99.90;;;;;;5013341;28;20458;-77
2022/08/05 09:34:54;;;;;;;1.85;1.17;;;14.60;99.90;;;;;;5013223;28;20453;-76
2022/08/05 09:37:24;;;;;;;3.78;1.10;;;14.60;99.90;;;;;;5008275;28;20022;-76
2022/08/05 09:39:52;;;;;;;2.10;1.02;;;14.60;99.90;;;;;;5012009;28;20443;-76
2022/08/05 09:42:22;;;;;;;2.63;1.42;;;14.60;99.90;;;;;;5007264;28;20076;-76
2022/08/05 09:44:53;;;;;;;4.82;1.73;;;14.50;99.90;;;;;;5006713;28;20050;-76
2022/08/05 09:47:26;;;;;;;3.33;1.80;;;14.50;99.90;;;;;;5007963;28;20017;-77
2022/08/05 09:49:56;;;;;;;2.78;1.13;;;14.50;99.90;;;;;;5012961;28;20018;-77
2022/08/05 09:52:32;;;;;;;3.15;1.10;;;14.50;99.90;;;;;;5013162;28;20026;-77
2022/08/05 09:55:05;;;;;;;;;;;14.40;99.90;;;;;;5013434;28;20041;-77
2022/08/05 09:57:39;;;;;;;2.38;1.48;;;14.40;99.90;;;;;;4995097;28;19906;-77
2022/08/05 10:00:16;;;;;;;1.95;1.08;;;14.40;99.90;;;;;;5003937;28;20030;-77
2022/08/05 10:02:47;;;;;;;1.10;0.90;;;14.40;99.90;;;;;;5012637;28;20386;-77
2022/08/05 10:05:16;;;;;;;2.25;0.88;;;14.40;99.90;;;;;;5002942;28;20026;-77
2022/08/05 10:07:57;;;;;;;1.42;0.75;;;14.30;99.90;;;;;;4998370;28;20483;-76
2022/08/05 10:10:30;;;;;;;1.20;0.70;;;14.30;99.90;;;;;;4999331;28;20475;-77
2022/08/05 10:13:05;;;;;;;0.68;0.50;;;14.30;99.90;;;;;;5000592;28;20594;-75
2022/08/05 10:15:38;;;;;;;1.52;0.73;;;14.20;99.90;;;;;;4999782;28;20029;-75
2022/08/05 10:18:26;;;;;;;1.05;0.30;;;14.20;99.90;;;;;;4998405;28;20069;-76
2022/08/05 10:21:05;;;;;;;1.42;0.60;;;14.20;99.90;;;;;;4998175;28;20030;-76
2022/08/05 10:23:38;;;;;;;1.30;0.77;;;14.20;99.90;;;;;;4998182;28;20022;-77
2022/08/05 10:26:12;;;;;;;0.50;0.20;;;14.20;99.90;;;;;;4999815;28;20478;-76
2022/08/05 10:28:44;;;;;;;3.20;1.00;;;14.20;99.90;;;;;;5000881;28;20493;-76
2022/08/05 10:31:14;;;;;;;1.38;0.40;;;14.20;99.90;;;;;;4998235;28;20090;-76
2022/08/05 10:33:43;;;;;;;0.93;0.60;;;14.10;99.90;;;;;;4996304;28;20014;-76
2022/08/05 10:36:13;;;;;;;3.60;1.05;;;14.20;99.90;;;;;;4999585;28;20018;-76
2022/08/05 10:38:47;;;;;;;4.10;0.70;;;14.10;99.90;;;;;;4999532;28;20026;-76
2022/08/05 10:41:54;;;;;;;1.00;0.55;;;14.10;99.90;;;;;;4981137;28;20462;-76
2022/08/05 10:44:23;;;;;;;1.85;0.50;;;14.20;99.90;;;;;;4967997;28;20038;-76
2022/08/05 10:46:55;;;;;;;1.23;0.38;;;14.20;99.90;;;;;;4993711;28;20083;-75
2022/08/05 10:49:25;;;;;;;0.47;0.35;;;14.20;99.90;;;;;;4992328;28;20105;-76
2022/08/05 10:52:01;;;;;;;1.63;0.70;;;14.20;99.90;;;;;;4995884;28;20011;-76
2022/08/05 10:55:05;;;;;;;5.57;0.50;;;14.20;99.90;;;;;;4993974;28;20428;-75
2022/08/05 10:57:33;;;;;;;1.33;0.55;;;14.20;99.90;;;;;;4956701;28;20092;-75
2022/08/05 11:00:21;;;;;;;9.82;0.68;;;14.10;99.90;;;;;;4993072;28;20069;-76
2022/08/05 11:03:10;;;;;;;0.90;0.50;;;14.10;99.90;;;;;;4995586;28;20028;-75
2022/08/05 11:05:38;;;;;;;1.95;0.60;;;14.10;99.90;;;;;;4996993;28;20041;-75
2022/08/05 11:08:09;;;;;;;2.25;0.65;;;14.00;99.90;;;;;;5001347;28;20026;-76
2022/08/05 11:10:41;;;;;;;1.75;0.40;;;14.00;99.90;;;;;;5009188;28;20014;-76
2022/08/05 11:13:09;;;;;;;2.15;0.68;;;14.00;99.90;;;;;;5012258;28;20042;-76
2022/08/05 11:15:39;;;;;;;2.13;0.50;;;14.00;99.90;;;;;;5010024;28;20026;-76
2022/08/05 11:18:29;;;;;;;4.20;0.65;;;13.90;99.90;;;;;;5012055;28;20029;-76
2022/08/05 11:20:57;;;;;;;2.75;0.50;;;13.90;99.90;;;;;;5009758;28;20037;-76
2022/08/05 11:23:57;;;;;;;2.00;0.70;;;13.90;99.90;;;;;;4994424;28;20076;-76
2022/08/05 11:26:25;;;;;;;1.17;0.50;;;13.90;99.90;;;;;;4992697;28;20022;-76
2022/08/05 11:28:54;;;;;;;2.70;0.50;;;13.90;99.90;;;;;;5010043;28;20021;-76
2022/08/05 11:31:28;;;;;;;1.02;0.40;;;13.90;99.90;;;;;;5011575;28;20053;-76
2022/08/05 11:34:07;;;;;;;0.40;0.40;;;13.90;99.90;;;;;;4994760;28;20018;-76
2022/08/05 11:36:46;;;;;;;1.33;0.43;;;13.80;99.90;;;;;;5009575;28;20030;-76
2022/08/05 11:39:17;;;;;;;3.35;0.45;;;13.80;99.90;;;;;;4994247;28;20496;-76
2022/08/05 11:41:51;;;;;;;2.25;0.73;;;13.80;99.90;;;;;;5014718;28;20505;-76
2022/08/05 11:44:21;;;;;;;4.22;0.88;;;13.80;99.90;;;;;;5015642;28;20022;-76
2022/08/05 11:46:53;;;;;;;1.45;0.73;;;13.80;99.90;;;;;;5009941;28;20033;-77
2022/08/05 11:49:23;;;;;;;0.98;0.60;;;13.80;99.90;;;;;;5008394;28;20368;-76
2022/08/05 11:51:53;;;;;;;0.93;0.50;;;13.70;99.90;;;;;;5012263;28;20486;-76
2022/08/05 11:54:26;;;;;;;0.75;0.57;;;13.70;99.90;;;;;;5011010;28;20030;-76
2022/08/05 11:56:56;;;;;;;0.68;0.38;;;13.70;99.90;;;;;;5010007;28;20097;-76
2022/08/05 11:59:26;;;;;;;1.38;0.57;;;13.70;99.90;;;;;;5013541;28;20420;-77
2022/08/05 12:02:09;;;;;;;3.47;0.73;;;13.70;99.90;;;;;;5014388;28;20037;-77
2022/08/05 12:04:48;;;;;;;3.03;0.40;;;13.70;99.90;;;;;;5012955;28;20018;-77
2022/08/05 12:07:17;;;;;;;1.38;0.40;;;13.70;99.90;;;;;;5012637;28;20022;-78
2022/08/05 12:09:56;;;;;;;2.25;0.50;;;13.70;99.90;;;;;;5012997;28;20045;-74
2022/08/05 12:12:28;;;;;;;2.92;0.40;;;13.70;99.90;;;;;;5001808;28;20043;-74
2022/08/05 12:14:56;;;;;;;3.95;0.38;;;13.70;99.90;;;;;;5001894;28;20029;-75
2022/08/05 12:17:26;;;;;;;1.15;0.50;;;13.70;99.90;;;;;;5006777;28;20043;-75
2022/08/05 12:19:56;;;;;;;0.60;0.47;;;13.70;99.90;;;;;;5007531;28;20389;-76
2022/08/05 12:22:30;;;;;;;2.53;0.50;;;13.70;99.90;;;;;;5009718;28;20538;-74
2022/08/05 12:24:58;;;;;;;1.58;0.45;;;13.80;99.90;;;;;;5009260;28;20034;-75
2022/08/05 12:27:33;;;;;;;1.65;0.32;;;13.70;99.90;;;;;;5007854;28;20026;-76
2022/08/05 12:30:03;;;;;;;0.68;0.50;;;13.80;99.90;;;;;;5008428;28;20044;-76
2022/08/05 12:32:43;;;;;;;3.53;0.68;;;13.70;99.90;;;;;;5009147;28;20022;-75
2022/08/05 12:35:14;;;;;;;1.13;0.63;;;13.70;99.90;;;;;;5007367;28;20470;-75
2022/08/05 12:37:45;;;;;;;3.40;0.98;;;13.70;99.90;;;;;;5008150;28;20021;-76
2022/08/05 12:40:14;;;;;;;1.42;0.50;;;13.70;99.90;;;;;;5008984;28;20046;-75
2022/08/05 12:42:42;;;;;;;1.00;0.63;;;13.70;99.90;;;;;;5007493;28;20064;-76
2022/08/05 12:45:13;;;;;;;0.75;0.35;;;13.70;99.90;;;;;;4989067;28;20018;-75
2022/08/05 12:47:41;;;;;;;1.13;0.40;;;13.60;99.90;;;;;;5006878;28;20091;-75
2022/08/05 12:50:17;;;;;;;0.63;0.43;;;13.60;99.90;;;;;;5006226;28;20542;-75
2022/08/05 12:52:58;;;;;;;2.33;0.35;;;13.60;99.90;;;;;;5008120;28;20076;-76
2022/08/05 12:55:29;;;;;;;2.25;0.35;;;13.60;99.90;;;;;;5000760;28;20026;-75
2022/08/05 12:57:58;;;;;;;2.58;0.70;;;13.60;99.90;;;;;;5007154;28;20478;-76
2022/08/05 13:00:32;;;;;;;0.73;0.32;;;13.50;99.90;;;;;;5013193;28;20030;-76
2022/08/05 13:03:01;;;;;;;0.28;0.28;;;13.50;99.90;;;;;;5014082;28;20033;-75
2022/08/05 13:05:29;;;;;;;1.75;0.30;;;13.50;99.90;;;;;;5014079;28;21451;-76
2022/08/05 13:07:59;;;;;;;5.53;0.50;;;13.50;99.90;;;;;;5011766;28;20022;-75
2022/08/05 13:10:32;;;;;;;3.78;0.80;;;13.50;99.90;;;;;;5013568;28;20483;-75
2022/08/05 13:12:59;;;;;;;4.25;0.47;;;13.40;99.90;;;;;;5012155;28;20022;-75